Time;durP1;ratioP1;P1;durP2;ratioP2;P2;SDS_P1;SDS_P2;PMS_P1;PMS_P2;Temp;Humidity;BMP_temperature;BMP_pressure;BME280_temperature;BME280_humidity;BME280_pressure;Samples;Min_cycle;Max_cycle;Signal;HPM_P1;HPM_P2
2020/12/26 00:01:21;;;;;;;4.42;1.50;;;;;;;3.29;64.26;100138.66;1749197;80;21207;-57
2020/12/26 00:03:49;;;;;;;3.45;1.37;;;;;;;3.28;64.20;100151.30;1748409;81;21203;-57
2020/12/26 00:06:20;;;;;;;4.22;1.32;;;;;;;3.26;64.26;100153.13;1760702;79;21379;-56
2020/12/26 00:08:50;;;;;;;3.05;1.10;;;;;;;3.23;64.43;100161.08;1762113;80;21201;-56
2020/12/26 00:11:19;;;;;;;5.12;1.60;;;;;;;3.22;64.55;100155.52;1765570;79;21183;-56
2020/12/26 00:13:49;;;;;;;5.20;1.62;;;;;;;3.20;64.68;100159.97;1756808;81;21846;-56
2020/12/26 00:16:17;;;;;;;4.30;1.42;;;;;;;3.20;64.72;100156.07;1761054;80;21607;-56
2020/12/26 00:18:45;;;;;;;4.90;1.70;;;;;;;3.31;64.59;100155.87;1752858;79;21255;-56
2020/12/26 00:21:15;;;;;;;4.17;1.67;;;;;;;3.44;64.38;100156.50;1755849;80;21197;-56
2020/12/26 00:23:43;;;;;;;5.30;1.82;;;;;;;3.51;64.03;100152.20;1770573;79;21594;-56
2020/12/26 00:26:16;;;;;;;4.35;2.08;;;;;;;3.54;63.94;100153.31;1762775;80;21182;-56
2020/12/26 00:28:44;;;;;;;7.33;1.77;;;;;;;3.54;63.81;100148.58;1724663;82;21204;-56
2020/12/26 00:31:14;;;;;;;5.30;2.05;;;;;;;3.51;63.75;100160.44;1747715;80;21193;-56
2020/12/26 00:33:42;;;;;;;4.67;1.82;;;;;;;3.47;63.74;100157.17;1753950;80;21200;-55
2020/12/26 00:36:09;;;;;;;5.03;1.72;;;;;;;3.42;63.82;100159.19;1765120;79;21586;-56
2020/12/26 00:38:37;;;;;;;4.53;1.60;;;;;;;3.37;63.83;100166.87;1758338;79;21148;-56
2020/12/26 00:41:06;;;;;;;5.03;1.40;;;;;;;3.31;63.99;100173.22;1775970;80;21564;-56
2020/12/26 00:43:34;;;;;;;5.62;1.70;;;;;;;3.24;64.21;100171.88;1767344;81;21388;-56
2020/12/26 00:46:01;;;;;;;5.03;2.08;;;;;;;3.18;64.43;100175.64;1765975;81;21167;-56
2020/12/26 00:48:29;;;;;;;5.00;1.77;;;;;;;3.15;64.46;100179.23;1768406;79;21124;-56
2020/12/26 00:50:57;;;;;;;5.15;1.95;;;;;;;3.11;64.20;100177.73;1763628;80;21164;-57
2020/12/26 00:53:33;;;;;;;9.55;2.30;;;;;;;3.12;64.15;100176.78;1856803;76;22731;-57
2020/12/26 00:56:01;;;;;;;7.40;2.50;;;;;;;3.10;64.09;100184.30;1819539;77;21315;-57
2020/12/26 00:58:29;;;;;;;3.70;1.50;;;;;;;3.09;64.03;100185.21;1836118;77;21198;-56
2020/12/26 01:00:56;;;;;;;5.17;2.10;;;;;;;3.09;64.07;100183.91;1835873;77;21217;-56
2020/12/26 01:14:11;;;;;;;8.30;2.85;;;;;;;2.94;64.94;100179.05;1830453;76;22696;-57
2020/12/26 01:16:38;;;;;;;8.25;3.08;;;;;;;2.89;64.99;100181.04;1793092;78;21535;-57
2020/12/26 01:19:06;;;;;;;7.92;3.08;;;;;;;2.90;64.77;100178.37;1805537;79;22086;-57
2020/12/26 01:21:34;;;;;;;6.33;2.25;;;;;;;2.92;64.68;100170.02;1788595;79;21190;-57
2020/12/26 01:24:01;;;;;;;6.78;2.77;;;;;;;2.96;64.60;100177.23;1801973;79;21183;-57
2020/12/26 01:26:29;;;;;;;8.13;2.60;;;;;;;2.97;64.51;100173.22;1801236;79;21116;-57
2020/12/26 01:29:00;;;;;;;6.72;2.52;;;;;;;2.98;64.50;100176.69;1792695;79;21165;-58
2020/12/26 01:31:28;;;;;;;6.75;2.45;;;;;;;3.09;64.37;100170.48;1793895;79;22258;-57
2020/12/26 01:33:56;;;;;;;5.33;2.45;;;;;;;3.21;64.05;100166.83;1789292;79;21771;-57
2020/12/26 01:36:23;;;;;;;6.00;2.40;;;;;;;3.28;63.71;100166.91;1798972;79;21164;-57
2020/12/26 01:38:52;;;;;;;5.62;2.25;;;;;;;3.27;63.77;100164.74;1790749;78;21151;-57
2020/12/26 01:41:20;;;;;;;6.00;2.45;;;;;;;3.29;63.84;100160.77;1793552;79;21160;-57
2020/12/26 01:43:57;;;;;;;6.72;2.87;;;;;;;3.32;63.74;100169.23;1790303;79;21200;-57
2020/12/26 01:46:32;;;;;;;6.47;2.30;;;;;;;3.34;63.47;100166.09;1747595;79;22796;-57
2020/12/26 01:49:01;;;;;;;6.22;2.55;;;;;;;3.26;63.35;100169.58;1708864;82;21188;-57
2020/12/26 01:51:31;;;;;;;6.10;2.60;;;;;;;3.18;63.37;100166.98;1720187;81;21196;-56
2020/12/26 01:53:59;;;;;;;5.45;2.45;;;;;;;3.10;63.39;100160.44;1706901;82;21062;-57
2020/12/26 01:56:27;;;;;;;7.70;2.70;;;;;;;3.08;63.58;100159.69;1709597;82;21188;-57
2020/12/26 01:58:54;;;;;;;5.85;2.75;;;;;;;3.08;63.57;100153.66;1719031;82;21740;-57
2020/12/26 02:01:38;;;;;;;6.50;2.25;;;;;;;3.07;63.44;100163.19;1716187;82;21608;-57
2020/12/26 02:04:06;;;;;;;6.58;2.75;;;;;;;3.06;63.35;100162.83;1708809;82;21995;-57
2020/12/26 02:09:06;;;;;;;5.12;2.22;;;;;;;3.01;63.36;100165.27;1829744;76;22609;-57
2020/12/26 02:11:36;;;;;;;7.05;2.45;;;;;;;2.87;63.45;100176.39;1744451;82;21012;-56
2020/12/26 02:14:03;;;;;;;5.47;2.25;;;;;;;2.85;63.72;100176.94;1773444;80;21444;-56
2020/12/26 02:16:48;;;;;;;4.87;2.05;;;;;;;2.86;63.85;100178.59;1733629;82;21666;-56
2020/12/26 02:19:19;;;;;;;5.50;2.37;;;;;;;2.87;63.69;100171.19;1730656;81;21005;-56
2020/12/26 02:21:47;;;;;;;6.08;2.00;;;;;;;2.87;63.73;100177.22;1754418;81;21627;-56
2020/12/26 02:24:15;;;;;;;4.60;1.92;;;;;;;2.86;63.76;100184.66;1750192;81;21132;-56
2020/12/26 02:26:42;;;;;;;6.17;1.82;;;;;;;2.87;63.63;100190.69;1754664;81;21590;-56
2020/12/26 02:29:09;;;;;;;4.53;1.55;;;;;;;2.85;63.71;100189.92;1752382;81;21837;-57
2020/12/26 02:31:37;;;;;;;5.72;1.82;;;;;;;2.85;63.58;100193.83;1757255;81;21620;-56
2020/12/26 02:34:05;;;;;;;6.10;2.12;;;;;;;2.85;63.70;100197.25;1812166;79;21535;-58
2020/12/26 02:36:38;;;;;;;5.47;1.77;;;;;;;2.85;63.50;100200.33;1803506;78;21175;-56
2020/12/26 02:39:07;;;;;;;5.08;1.95;;;;;;;2.85;63.60;100197.25;1816420;78;21407;-57
2020/12/26 02:41:35;;;;;;;5.22;2.10;;;;;;;2.87;63.65;100202.38;1800279;79;21152;-57
2020/12/26 02:44:04;;;;;;;5.08;2.10;;;;;;;2.89;63.61;100194.89;1814550;79;21474;-57
2020/12/26 02:46:32;;;;;;;5.33;1.90;;;;;;;2.92;63.51;100194.72;1813060;77;21124;-57
2020/12/26 02:49:00;;;;;;;5.35;1.80;;;;;;;2.95;63.33;100193.73;1796953;79;21179;-57
2020/12/26 02:51:27;;;;;;;4.85;1.75;;;;;;;2.97;63.27;100192.72;1809227;78;23533;-57
2020/12/26 02:53:57;;;;;;;5.28;2.17;;;;;;;2.96;63.23;100194.13;1813062;79;21116;-57
2020/12/26 02:56:25;;;;;;;4.55;1.60;;;;;;;2.99;63.19;100196.55;1815510;79;21588;-58
2020/12/26 02:58:52;;;;;;;5.55;2.02;;;;;;;2.98;63.12;100194.41;1816317;79;21603;-57
2020/12/26 03:01:19;;;;;;;7.45;2.20;;;;;;;3.00;62.98;100198.23;1813785;79;21603;-57
2020/12/26 03:03:47;;;;;;;4.70;1.90;;;;;;;2.99;62.86;100201.73;1811561;79;22078;-57
2020/12/26 03:06:14;;;;;;;6.47;1.80;;;;;;;2.99;62.90;100206.94;1808297;79;21923;-57
2020/12/26 03:08:42;;;;;;;4.85;1.70;;;;;;;2.95;62.87;100206.73;1814670;78;21175;-57
2020/12/26 03:11:10;;;;;;;3.40;1.40;;;;;;;2.95;62.89;100208.03;1802497;79;21100;-57
2020/12/26 03:13:37;;;;;;;4.90;1.55;;;;;;;2.96;62.86;100209.72;1795221;79;21153;-57
2020/12/26 03:16:05;;;;;;;5.28;1.90;;;;;;;2.95;62.83;100211.45;1738353;82;23657;-57
2020/12/26 03:18:32;;;;;;;6.75;1.60;;;;;;;2.94;62.88;100218.03;1754238;81;21371;-57
2020/12/26 03:21:02;;;;;;;3.05;1.00;;;;;;;2.91;62.92;100218.22;1805445;79;21191;-57
2020/12/26 03:23:30;;;;;;;4.33;1.22;;;;;;;2.87;62.99;100218.80;1799269;79;21156;-57
2020/12/26 03:25:57;;;;;;;3.72;1.27;;;;;;;2.88;62.99;100216.59;1796454;79;21128;-57
2020/12/26 03:28:25;;;;;;;3.83;1.62;;;;;;;2.89;62.92;100213.09;1808963;79;21189;-57
2020/12/26 03:30:53;;;;;;;4.97;1.70;;;;;;;2.91;62.84;100211.25;1815416;79;21112;-57
2020/12/26 03:33:21;;;;;;;7.28;1.80;;;;;;;2.93;62.81;100216.37;1814370;79;21586;-58
2020/12/26 03:35:48;;;;;;;5.72;1.98;;;;;;;2.95;62.56;100224.45;1802653;79;21164;-60
2020/12/26 03:38:16;;;;;;;4.15;1.75;;;;;;;2.93;62.51;100215.07;1809483;79;21510;-57
2020/12/26 03:40:44;;;;;;;4.80;1.65;;;;;;;2.92;62.52;100220.70;1814241;79;21367;-58
2020/12/26 03:43:11;;;;;;;3.80;1.42;;;;;;;2.91;62.54;100219.05;1808144;79;21102;-57
2020/12/26 03:45:39;;;;;;;3.25;1.15;;;;;;;2.95;62.51;100223.63;1811504;79;21140;-57
2020/12/26 03:48:06;;;;;;;3.90;1.10;;;;;;;2.98;62.51;100217.80;1814251;79;21546;-57
2020/12/26 03:50:34;;;;;;;4.17;1.30;;;;;;;3.06;62.40;100223.92;1811663;79;21630;-57
2020/12/26 03:53:01;;;;;;;3.67;1.30;;;;;;;3.04;62.31;100221.84;1790809;79;23491;-57
2020/12/26 03:55:30;;;;;;;3.72;1.40;;;;;;;3.01;62.46;100227.22;1807933;79;21832;-57
2020/12/26 03:57:58;;;;;;;4.37;1.15;;;;;;;2.98;62.49;100229.97;1808605;78;21191;-57
2020/12/26 04:00:25;;;;;;;3.92;1.25;;;;;;;2.93;62.54;100225.47;1809028;79;21106;-57
2020/12/26 04:02:53;;;;;;;2.98;1.00;;;;;;;2.89;62.51;100226.52;1813669;79;21756;-56
2020/12/26 04:05:21;;;;;;;4.40;1.40;;;;;;;2.85;62.60;100224.54;1813878;79;23365;-56
2020/12/26 04:07:49;;;;;;;4.65;1.62;;;;;;;2.81;62.59;100220.44;1790439;78;21154;-56
2020/12/26 04:10:16;;;;;;;2.85;1.10;;;;;;;2.77;62.52;100214.55;1801588;78;21555;-57
2020/12/26 04:12:44;;;;;;;5.15;1.37;;;;;;;2.70;62.64;100224.84;1809261;78;22391;-57
2020/12/26 04:15:12;;;;;;;5.47;1.87;;;;;;;2.67;62.75;100228.06;1816197;78;21163;-57
2020/12/26 04:17:40;;;;;;;3.90;1.40;;;;;;;2.60;62.87;100227.05;1813353;78;21443;-58
2020/12/26 04:20:08;;;;;;;3.92;1.40;;;;;;;2.57;63.01;100233.73;1807346;78;21148;-57
2020/12/26 04:22:35;;;;;;;3.52;1.22;;;;;;;2.56;63.02;100232.03;1811604;78;21658;-57
2020/12/26 04:25:03;;;;;;;5.47;2.22;;;;;;;2.56;63.00;100237.70;1799483;78;21618;-56
2020/12/26 04:27:32;;;;;;;6.60;2.20;;;;;;;2.52;63.06;100240.91;1805537;78;21112;-55
2020/12/26 04:30:00;;;;;;;4.90;1.50;;;;;;;2.50;63.08;100237.98;1803808;78;21370;-54
2020/12/26 04:32:27;;;;;;;5.00;1.90;;;;;;;2.45;63.20;100243.39;1815778;78;21136;-55
2020/12/26 04:34:55;;;;;;;5.65;1.90;;;;;;;2.42;63.34;100244.84;1810379;78;21634;-54
2020/12/26 04:37:22;;;;;;;4.12;1.67;;;;;;;2.38;63.41;100249.34;1805368;78;21176;-56
2020/12/26 04:39:51;;;;;;;4.67;1.85;;;;;;;2.38;63.43;100244.62;1813926;78;21590;-56
2020/12/26 04:42:19;;;;;;;6.28;2.87;;;;;;;2.32;63.49;100250.95;1812604;78;21190;-56
2020/12/26 04:44:49;;;;;;;8.58;4.10;;;;;;;2.29;63.63;100255.45;1813008;78;21144;-56
2020/12/26 04:47:18;;;;;;;7.67;3.50;;;;;;;2.27;63.70;100255.97;1816025;78;21107;-56
2020/12/26 04:49:45;;;;;;;6.97;2.42;;;;;;;2.26;63.71;100259.49;1803641;78;21168;-56
2020/12/26 04:52:13;;;;;;;5.20;2.22;;;;;;;2.26;63.70;100264.22;1785280;78;21124;-57
2020/12/26 04:54:42;;;;;;;5.83;1.90;;;;;;;2.25;63.70;100269.48;1764196;78;23615;-56
2020/12/26 04:57:10;;;;;;;4.58;1.50;;;;;;;2.23;63.65;100280.77;1817065;78;21222;-56
2020/12/26 04:59:39;;;;;;;4.80;1.90;;;;;;;2.17;63.73;100283.67;1812371;78;21090;-57
2020/12/26 05:02:09;;;;;;;6.15;2.33;;;;;;;2.17;63.88;100291.89;1815615;78;21175;-56
2020/12/26 05:04:37;;;;;;;4.28;1.62;;;;;;;2.18;63.91;100290.53;1813978;77;21148;-56
2020/12/26 05:07:05;;;;;;;5.72;2.45;;;;;;;2.22;63.94;100289.49;1764063;80;21559;-55
2020/12/26 05:09:34;;;;;;;7.30;2.70;;;;;;;2.26;63.77;100284.99;1808152;78;21502;-55
2020/12/26 05:12:01;;;;;;;9.48;5.12;;;;;;;2.26;63.75;100290.19;1797448;79;21128;-57
2020/12/26 05:14:31;;;;;;;8.05;4.12;;;;;;;2.28;63.79;100288.35;1806920;79;21164;-57
2020/12/26 05:17:00;;;;;;;7.95;3.67;;;;;;;2.30;63.68;100293.47;1813586;79;21147;-57
2020/12/26 05:19:29;;;;;;;5.42;2.05;;;;;;;2.32;63.63;100287.74;1800277;79;22849;-56
2020/12/26 05:21:57;;;;;;;7.72;3.70;;;;;;;2.34;63.51;100288.07;1805630;79;21195;-56
2020/12/26 05:24:24;;;;;;;8.85;4.37;;;;;;;2.37;63.37;100286.63;1800759;79;21153;-56
2020/12/26 05:26:53;;;;;;;10.48;6.35;;;;;;;2.38;63.36;100291.36;1810401;79;21163;-56
2020/12/26 05:29:22;;;;;;;8.88;4.12;;;;;;;2.42;63.36;100287.69;1813032;79;21140;-56
2020/12/26 05:31:58;;;;;;;6.53;3.40;;;;;;;2.43;63.44;100290.69;1814589;79;21733;-56
2020/12/26 05:34:35;;;;;;;8.58;3.55;;;;;;;2.48;63.61;100297.80;1807571;79;21163;-57
2020/12/26 05:37:05;;;;;;;8.03;3.97;;;;;;;2.48;63.78;100294.37;1811590;79;21160;-57
2020/12/26 05:39:35;;;;;;;8.63;3.70;;;;;;;2.47;63.65;100300.46;1813930;78;21567;-57
2020/12/26 05:42:04;;;;;;;6.15;3.12;;;;;;;2.43;63.56;100295.88;1799818;79;21107;-57
2020/12/26 05:44:35;;;;;;;6.40;3.12;;;;;;;2.43;63.55;100297.64;1801732;79;21226;-58
2020/12/26 05:47:06;;;;;;;14.43;4.00;;;;;;;2.40;63.50;100299.48;1813790;79;21232;-56
2020/12/26 05:49:36;;;;;;;10.53;3.27;;;;;;;2.39;63.74;100304.73;1799378;79;21152;-57
2020/12/26 05:52:10;;;;;;;5.78;2.40;;;;;;;2.35;63.82;100317.47;1810252;79;21167;-57
2020/12/26 05:54:51;;;;;;;4.28;1.52;;;;;;;2.33;64.45;100321.43;1795736;79;21663;-57
2020/12/26 05:57:19;;;;;;;4.30;1.77;;;;;;;2.26;64.69;100327.83;1795151;79;21185;-57
2020/12/26 05:59:49;;;;;;;4.83;1.12;;;;;;;2.21;64.85;100341.48;1801259;79;21191;-57
2020/12/26 06:02:27;;;;;;;4.80;1.67;;;;;;;2.12;64.75;100336.70;1804576;79;21576;-56
2020/12/26 06:05:00;;;;;;;3.37;1.30;;;;;;;2.08;64.71;100337.77;1802227;79;21188;-57
2020/12/26 06:07:35;;;;;;;7.70;1.80;;;;;;;2.01;64.73;100347.12;1813792;79;21112;-56
2020/12/26 06:10:08;;;;;;;3.50;1.30;;;;;;;1.99;64.79;100342.45;1785974;79;21784;-56
2020/12/26 06:12:35;;;;;;;5.22;2.00;;;;;;;1.94;64.92;100349.61;1793076;79;21251;-57
2020/12/26 06:15:03;;;;;;;4.55;1.60;;;;;;;1.94;64.90;100351.37;1789088;79;21536;-55
2020/12/26 06:17:32;;;;;;;4.25;1.40;;;;;;;1.89;64.97;100346.38;1797783;79;21730;-56
2020/12/26 06:20:04;;;;;;;3.80;1.77;;;;;;;1.90;64.91;100350.67;1793296;79;21204;-56
2020/12/26 06:22:50;;;;;;;5.78;2.05;;;;;;;1.88;64.97;100347.73;1786730;79;21383;-57
2020/12/26 06:25:20;;;;;;;8.18;3.52;;;;;;;1.90;65.00;100349.80;1788209;79;21175;-56
2020/12/26 06:27:59;;;;;;;10.13;6.03;;;;;;;1.86;65.06;100352.53;1790220;79;21652;-56
2020/12/26 06:30:28;;;;;;;5.80;1.98;;;;;;;1.89;64.98;100361.95;1796214;79;21757;-56
2020/12/26 06:32:57;;;;;;;7.97;2.05;;;;;;;1.84;64.99;100362.61;1791044;79;21175;-56
2020/12/26 06:35:25;;;;;;;7.17;2.87;;;;;;;1.86;65.01;100365.97;1792178;79;22071;-56
2020/12/26 06:38:21;;;;;;;6.58;3.08;;;;;;;1.82;65.06;100363.14;1784246;79;21180;-56
2020/12/26 06:40:56;;;;;;;5.50;2.55;;;;;;;1.78;65.15;100365.45;1792629;79;21551;-56
2020/12/26 06:43:56;;;;;;;7.37;2.47;;;;;;;1.73;65.28;100368.71;1790989;79;21207;-56
2020/12/26 06:46:30;;;;;;;6.97;3.25;;;;;;;1.72;65.39;100378.72;1784199;79;21175;-56
2020/12/26 06:48:58;;;;;;;6.10;2.80;;;;;;;1.69;65.57;100395.70;1794447;79;23593;-56
2020/12/26 06:51:30;;;;;;;8.20;3.10;;;;;;;1.65;65.68;100399.72;1800147;79;21128;-57
2020/12/26 06:54:03;;;;;;;6.25;3.45;;;;;;;1.61;65.81;100398.61;1789467;79;21631;-58
2020/12/26 06:56:38;;;;;;;6.22;3.05;;;;;;;1.58;65.86;100399.61;1793794;79;21199;-59
2020/12/26 06:59:08;;;;;;;8.70;3.98;;;;;;;1.55;65.96;100410.11;1789871;79;21151;-58
2020/12/26 07:01:38;;;;;;;6.90;3.47;;;;;;;1.55;66.05;100398.44;1792053;79;22262;-59
2020/12/26 07:04:15;;;;;;;10.25;3.65;;;;;;;1.58;66.10;100406.09;1798949;78;21646;-64
2020/12/26 07:06:47;;;;;;;6.05;2.40;;;;;;;1.61;66.06;100411.13;1749628;80;21641;-63
2020/12/26 07:09:17;;;;;;;11.10;3.12;;;;;;;1.64;66.11;100406.27;1742547;80;21354;-63
2020/12/26 07:11:50;;;;;;;10.15;4.10;;;;;;;1.68;66.11;100406.52;1750063;80;21275;-63
2020/12/26 07:14:35;;;;;;;8.28;3.20;;;;;;;1.73;66.03;100413.67;1746614;81;23078;-63
2020/12/26 07:17:21;;;;;;;5.67;2.62;;;;;;;1.78;66.02;100424.70;1799329;79;21614;-63
2020/12/26 07:19:51;;;;;;;7.20;2.92;;;;;;;1.82;66.04;100421.52;1792521;79;21567;-62
2020/12/26 07:22:28;;;;;;;7.00;3.17;;;;;;;1.89;66.01;100419.03;1740725;81;21691;-62
2020/12/26 07:25:08;;;;;;;9.83;2.95;;;;;;;1.95;65.94;100423.10;1749275;81;21147;-63
2020/12/26 07:27:37;;;;;;;10.23;3.37;;;;;;;2.00;65.63;100415.52;1744205;81;21360;-64
2020/12/26 07:30:09;;;;;;;9.20;3.60;;;;;;;2.04;65.56;100407.14;1747398;81;21222;-67
2020/12/26 07:32:45;;;;;;;8.03;2.60;;;;;;;2.10;65.51;100407.31;1803371;77;21669;-64
2020/12/26 07:35:25;;;;;;;6.58;2.65;;;;;;;2.19;65.21;100413.41;1804812;79;21103;-63
2020/12/26 07:37:58;;;;;;;7.85;2.83;;;;;;;2.22;65.11;100413.28;1803498;77;21760;-65
2020/12/26 07:40:42;;;;;;;4.00;1.72;;;;;;;2.26;64.88;100414.81;1794137;77;21203;-64
2020/12/26 07:43:15;;;;;;;7.97;2.80;;;;;;;2.29;64.79;100419.04;1795766;77;22256;-65
2020/12/26 07:45:46;;;;;;;4.60;2.10;;;;;;;2.37;64.52;100424.27;1805086;77;21496;-65
2020/12/26 07:48:15;;;;;;;6.17;2.22;;;;;;;2.41;64.38;100421.91;1798467;77;21243;-66
2020/12/26 07:50:44;;;;;;;4.55;2.12;;;;;;;2.47;64.16;100423.83;1794062;77;21586;-61
2020/12/26 07:53:13;;;;;;;4.62;1.65;;;;;;;2.52;63.98;100426.63;1740093;80;22209;-60
2020/12/26 07:55:41;;;;;;;7.83;3.10;;;;;;;2.57;63.74;100431.16;1765051;79;22300;-62
2020/12/26 07:58:16;;;;;;;5.95;2.25;;;;;;;2.57;63.69;100426.39;1806008;77;21171;-60
2020/12/26 08:00:44;;;;;;;6.65;2.90;;;;;;;2.62;63.81;100430.91;1811889;77;21163;-61
2020/12/26 08:03:13;;;;;;;4.45;2.08;;;;;;;2.66;63.77;100438.14;1801197;77;21475;-61
2020/12/26 08:05:48;;;;;;;6.60;2.77;;;;;;;2.73;63.81;100431.73;1803654;77;21159;-62
2020/12/26 08:08:21;;;;;;;8.05;2.87;;;;;;;2.81;63.72;100446.95;1806818;77;21246;-63
2020/12/26 08:10:58;;;;;;;7.70;2.87;;;;;;;2.89;63.84;100438.34;1807779;77;21631;-62
2020/12/26 08:13:28;;;;;;;4.83;2.12;;;;;;;3.00;63.59;100439.16;1807836;77;21171;-62
2020/12/26 08:16:02;;;;;;;5.80;2.65;;;;;;;3.07;63.63;100438.77;1808770;77;21167;-64
2020/12/26 08:18:32;;;;;;;6.53;2.80;;;;;;;3.15;63.45;100444.44;1810633;77;21349;-60
2020/12/26 08:21:00;;;;;;;6.37;2.95;;;;;;;3.19;63.19;100446.44;1809972;77;21151;-60
2020/12/26 08:23:28;;;;;;;7.08;2.35;;;;;;;3.21;63.09;100448.96;1816120;77;21490;-59
2020/12/26 08:26:02;;;;;;;5.25;2.55;;;;;;;3.20;63.19;100451.20;1739875;80;21215;-60
2020/12/26 08:28:30;;;;;;;5.87;2.30;;;;;;;3.22;63.23;100454.56;1751559;80;21204;-60
2020/12/26 08:31:02;;;;;;;5.62;2.02;;;;;;;3.34;63.00;100461.76;1740880;80;21749;-62
2020/12/26 08:33:38;;;;;;;4.70;2.72;;;;;;;3.41;62.86;100456.63;1754690;77;21183;-59
2020/12/26 08:36:29;;;;;;;6.33;2.98;;;;;;;3.42;62.87;100457.02;1755406;80;21627;-61
2020/12/26 08:38:58;;;;;;;7.67;3.12;;;;;;;3.44;63.07;100442.64;1803056;77;22070;-61
2020/12/26 08:41:25;;;;;;;7.10;3.05;;;;;;;3.45;62.95;100448.24;1739928;80;21151;-61
2020/12/26 08:43:53;;;;;;;5.65;2.58;;;;;;;3.43;62.96;100437.91;1750542;80;23512;-62
2020/12/26 08:46:25;;;;;;;6.50;2.80;;;;;;;3.43;63.02;100432.70;1809581;77;21195;-59
2020/12/26 08:48:55;;;;;;;5.85;2.30;;;;;;;3.42;62.98;100429.71;1814250;77;21164;-61
2020/12/26 08:51:26;;;;;;;6.95;3.17;;;;;;;3.41;63.09;100427.19;1793337;77;21820;-62
2020/12/26 08:53:56;;;;;;;7.03;2.52;;;;;;;3.42;63.05;100428.88;1806521;77;21184;-59
2020/12/26 08:56:37;;;;;;;6.20;2.70;;;;;;;3.42;63.18;100427.58;1813032;77;21283;-62
2020/12/26 08:59:05;;;;;;;9.68;3.35;;;;;;;3.44;63.53;100415.33;1805550;77;21203;-61
2020/12/26 09:01:34;;;;;;;7.65;2.70;;;;;;;3.48;63.59;100420.31;1799122;77;21170;-63
2020/12/26 09:04:02;;;;;;;7.12;2.95;;;;;;;3.54;63.43;100413.48;1803484;77;21550;-61
2020/12/26 09:06:39;;;;;;;5.37;2.40;;;;;;;3.61;63.37;100415.31;1797998;79;21199;-61
2020/12/26 09:09:22;;;;;;;7.17;3.00;;;;;;;3.73;63.07;100407.34;1802991;77;22389;-61
2020/12/26 09:12:05;;;;;;;7.40;2.85;;;;;;;3.87;62.43;100397.08;1757614;79;21199;-62
2020/12/26 09:14:32;;;;;;;5.58;2.27;;;;;;;3.93;62.46;100403.72;1778609;79;21225;-62
2020/12/26 09:17:02;;;;;;;5.03;2.15;;;;;;;3.90;62.59;100409.94;1789426;78;21970;-61
2020/12/26 09:19:43;;;;;;;7.35;2.90;;;;;;;3.89;62.55;100424.33;1781723;78;21241;-60
2020/12/26 09:22:12;;;;;;;8.48;2.22;;;;;;;3.89;62.66;100428.23;1796593;77;22415;-59
2020/12/26 09:24:39;;;;;;;6.55;1.77;;;;;;;3.88;62.58;100429.14;1812439;77;22250;-59
2020/12/26 09:27:20;;;;;;;6.05;2.40;;;;;;;3.85;62.63;100433.20;1813829;77;21631;-61
2020/12/26 09:29:54;;;;;;;5.55;2.85;;;;;;;3.83;62.82;100428.10;1811466;77;21622;-59
2020/12/26 09:32:19;;;;;;;6.42;2.50;;;;;;;3.86;63.07;100434.89;1801345;78;21099;-61
2020/12/26 09:34:47;;;;;;;5.75;2.50;;;;;;;3.88;62.84;100456.48;1812188;77;21239;-61
2020/12/26 09:37:15;;;;;;;5.10;2.17;;;;;;;3.85;62.94;100464.44;1803930;77;21132;-61
2020/12/26 09:39:43;;;;;;;6.87;3.20;;;;;;;3.88;62.93;100465.59;1811432;77;21604;-62
2020/12/26 09:42:10;;;;;;;5.67;2.62;;;;;;;4.02;62.52;100464.44;1810874;78;21203;-62
2020/12/26 09:44:40;;;;;;;9.85;3.22;;;;;;;4.06;62.68;100467.72;1804839;78;21157;-60
2020/12/26 09:47:07;;;;;;;6.47;3.05;;;;;;;4.05;62.45;100459.08;1808731;77;21624;-60
2020/12/26 09:49:35;;;;;;;7.25;3.45;;;;;;;4.04;62.72;100472.17;1807008;78;21168;-61
2020/12/26 09:52:03;;;;;;;7.30;2.65;;;;;;;4.03;62.91;100475.22;1747716;81;21170;-61
2020/12/26 09:54:31;;;;;;;8.18;3.58;;;;;;;4.03;62.78;100463.50;1811641;78;21117;-60
2020/12/26 09:56:58;;;;;;;6.97;2.92;;;;;;;4.00;62.81;100451.10;1810428;77;21160;-62
2020/12/26 09:59:27;;;;;;;6.62;3.02;;;;;;;3.96;62.91;100445.69;1817693;78;21355;-60
2020/12/26 10:01:54;;;;;;;7.37;3.08;;;;;;;3.94;62.87;100450.14;1816284;78;21991;-62
2020/12/26 10:04:21;;;;;;;6.95;2.98;;;;;;;3.88;63.03;100463.84;1809550;78;21164;-60
2020/12/26 10:06:49;;;;;;;6.53;3.15;;;;;;;3.83;63.16;100467.14;1808432;78;21626;-62
2020/12/26 10:09:16;;;;;;;6.78;3.75;;;;;;;3.86;63.30;100477.37;1807070;78;21463;-59
2020/12/26 10:11:44;;;;;;;9.83;3.87;;;;;;;3.95;63.34;100473.49;1798785;77;21241;-60
2020/12/26 10:14:12;;;;;;;11.18;3.33;;;;;;;4.02;63.21;100468.81;1793144;77;21064;-60
2020/12/26 10:16:41;;;;;;;9.15;3.55;;;;;;;4.03;63.25;100470.48;1799935;79;21359;-60
2020/12/26 10:19:09;;;;;;;10.18;3.62;;;;;;;4.03;63.45;100463.50;1793347;79;21179;-60
2020/12/26 10:21:36;;;;;;;8.80;3.60;;;;;;;4.05;63.63;100458.21;1794847;79;21223;-59
2020/12/26 10:24:04;;;;;;;7.55;3.30;;;;;;;4.09;63.54;100467.56;1788309;79;22136;-59
2020/12/26 10:26:31;;;;;;;9.58;3.62;;;;;;;4.08;63.18;100481.50;1794792;78;21167;-59
2020/12/26 10:28:59;;;;;;;5.62;2.65;;;;;;;4.03;63.31;100484.33;1802146;79;21121;-59
2020/12/26 10:31:29;;;;;;;7.08;3.15;;;;;;;4.00;63.45;100481.05;1805052;78;21172;-59
2020/12/26 10:33:58;;;;;;;8.95;3.22;;;;;;;3.97;63.59;100482.06;1808223;78;21175;-65
2020/12/26 10:36:25;;;;;;;7.00;2.80;;;;;;;3.95;63.53;100496.06;1805061;79;21877;-59
2020/12/26 10:38:53;;;;;;;7.60;3.30;;;;;;;3.95;63.62;100485.64;1800102;79;21822;-59
2020/12/26 10:41:21;;;;;;;19.32;4.40;;;;;;;3.99;63.30;100493.23;1797703;78;21214;-59
2020/12/26 10:43:49;;;;;;;7.33;3.80;;;;;;;4.02;63.57;100507.87;1792661;79;21219;-60
2020/12/26 10:46:21;;;;;;;8.85;3.40;;;;;;;3.98;63.59;100512.83;1796159;79;21112;-60
2020/12/26 10:50:39;;;;;;;8.35;4.12;;;;;;;3.94;63.98;100521.73;1752489;78;22647;-71
2020/12/26 10:53:07;;;;;;;8.38;4.03;;;;;;;3.82;64.07;100516.21;1728694;82;21200;-71
2020/12/26 10:57:38;;;;;;;9.25;4.28;;;;;;;3.81;64.40;100518.89;1794746;77;23379;-70
2020/12/26 11:00:06;;;;;;;9.20;4.25;;;;;;;3.75;64.57;100521.34;1772695;80;21108;-70
2020/12/26 11:02:34;;;;;;;7.65;3.42;;;;;;;3.72;64.72;100524.92;1712969;81;21224;-70
2020/12/26 11:05:01;;;;;;;9.05;3.85;;;;;;;3.74;64.80;100527.92;1736863;81;21980;-73
2020/12/26 11:07:33;;;;;;;10.70;4.95;;;;;;;3.75;64.90;100525.69;1736172;80;21688;-72
2020/12/26 11:10:00;;;;;;;10.50;5.22;;;;;;;3.85;64.91;100517.36;1736471;80;21203;-72
2020/12/26 11:12:29;;;;;;;12.35;5.25;;;;;;;4.01;64.36;100523.10;1715148;83;22133;-71
2020/12/26 11:14:56;;;;;;;8.45;4.22;;;;;;;4.08;64.15;100521.86;1705303;82;21266;-73
2020/12/26 11:17:24;;;;;;;6.92;4.10;;;;;;;4.09;64.11;100514.44;1713427;81;21227;-72
2020/12/26 11:19:51;;;;;;;9.53;5.22;;;;;;;4.09;64.13;100515.74;1709089;83;21204;-72
2020/12/26 11:22:18;;;;;;;10.58;5.17;;;;;;;4.09;64.07;100502.73;1728648;81;21521;-72
2020/12/26 11:24:46;;;;;;;7.58;4.37;;;;;;;4.08;64.19;100508.41;1698691;83;21654;-72
2020/12/26 11:27:14;;;;;;;9.10;4.70;;;;;;;4.07;64.23;100511.08;1708697;81;21291;-72
2020/12/26 11:29:41;;;;;;;8.65;4.42;;;;;;;4.05;64.24;100518.11;1711284;81;21261;-72
2020/12/26 11:32:09;;;;;;;10.50;5.12;;;;;;;4.03;64.38;100514.27;1713776;81;21654;-72
2020/12/26 11:34:37;;;;;;;7.37;4.08;;;;;;;4.02;64.49;100513.91;1713784;83;21227;-72
2020/12/26 11:37:08;;;;;;;9.30;5.15;;;;;;;3.99;64.66;100511.92;1709912;82;21219;-72
2020/12/26 11:39:36;;;;;;;11.43;5.25;;;;;;;4.04;64.49;100502.95;1711777;82;23630;-72
2020/12/26 11:42:04;;;;;;;9.35;4.30;;;;;;;4.14;64.23;100496.82;1711333;83;21486;-74
2020/12/26 11:44:31;;;;;;;9.53;4.87;;;;;;;4.18;64.15;100497.03;1738245;81;21255;-70
2020/12/26 11:47:00;;;;;;;11.68;5.12;;;;;;;4.16;64.13;100485.85;1716834;82;21188;-72
2020/12/26 11:49:28;;;;;;;9.30;4.58;;;;;;;4.15;64.41;100484.16;1716083;81;21212;-71
2020/12/26 11:51:56;;;;;;;11.90;5.90;;;;;;;4.18;64.59;100491.81;1716032;82;21233;-71
2020/12/26 11:54:24;;;;;;;10.48;4.83;;;;;;;4.21;64.25;100505.16;1714067;82;21239;-71
2020/12/26 11:56:54;;;;;;;8.00;4.72;;;;;;;4.18;64.17;100504.01;1706635;82;21243;-72
2020/12/26 11:59:23;;;;;;;9.80;4.55;;;;;;;4.15;64.37;100502.39;1702049;82;21497;-73
2020/12/26 12:01:54;;;;;;;12.18;4.83;;;;;;;4.13;64.36;100506.01;1697296;83;21272;-72